Time;durP1;ratioP1;P1;durP2;ratioP2;P2;SDS_P1;SDS_P2;PMS_P1;PMS_P2;Temp;Humidity;BMP_temperature;BMP_pressure;BME280_temperature;BME280_humidity;BME280_pressure;Samples;Min_cycle;Max_cycle;Signal;HPM_P1;HPM_P2
2021/12/10 00:01:48;;;;;;;8.20;5.47;;;-0.10;96.30;;;;;;4878590;29;20419;-75
2021/12/10 00:04:14;;;;;;;7.90;5.40;;;-0.10;96.30;;;;;;4878389;29;20434;-75
2021/12/10 00:06:47;;;;;;;4.90;3.93;;;-0.10;96.30;;;;;;4878244;29;20421;-75
2021/12/10 00:09:21;;;;;;;9.70;4.80;;;-0.10;96.30;;;;;;4878733;29;20180;-75
2021/12/10 00:12:06;;;;;;;8.57;4.37;;;-0.20;96.30;;;;;;4878564;29;20429;-75
2021/12/10 00:14:34;;;;;;;5.80;4.53;;;-0.20;96.30;;;;;;4878308;29;20442;-75
2021/12/10 00:17:01;;;;;;;4.30;3.90;;;-0.20;96.30;;;;;;4878194;29;20810;-75
2021/12/10 00:19:34;;;;;;;5.80;4.17;;;-0.20;96.30;;;;;;4878271;29;20426;-75
2021/12/10 00:22:09;;;;;;;8.57;4.20;;;-0.20;96.30;;;;;;4877124;29;20469;-75
2021/12/10 00:24:35;;;;;;;8.00;5.20;;;-0.20;96.30;;;;;;4878276;29;20520;-75
2021/12/10 00:27:05;;;;;;;7.33;3.87;;;-0.20;96.30;;;;;;4878069;29;20414;-76
2021/12/10 00:29:31;;;;;;;5.97;4.30;;;-0.20;96.30;;;;;;4890832;29;20793;-75
2021/12/10 00:32:04;;;;;;;5.83;4.67;;;-0.10;96.30;;;;;;4895600;29;20789;-75
2021/12/10 00:34:39;;;;;;;6.80;4.70;;;-0.20;96.30;;;;;;4895530;29;20464;-75
2021/12/10 00:37:08;;;;;;;8.30;4.20;;;-0.20;96.30;;;;;;4895557;29;20504;-75
2021/12/10 00:39:38;;;;;;;9.17;4.50;;;-0.20;96.30;;;;;;4896850;29;20409;-75
2021/12/10 00:42:08;;;;;;;6.37;4.50;;;-0.20;96.30;;;;;;4896912;29;20414;-75
2021/12/10 00:44:34;;;;;;;5.30;4.03;;;-0.20;96.30;;;;;;4895458;29;20560;-75
2021/12/10 00:47:00;;;;;;;7.77;4.53;;;-0.20;96.30;;;;;;4896555;29;20492;-75
2021/12/10 00:49:26;;;;;;;14.97;4.47;;;-0.20;96.30;;;;;;4896812;29;20180;-75
2021/12/10 00:51:52;;;;;;;5.00;3.53;;;-0.20;96.30;;;;;;4895526;29;20201;-76
2021/12/10 00:54:17;;;;;;;13.87;3.47;;;-0.20;96.30;;;;;;4896713;29;20670;-76
2021/12/10 00:56:45;;;;;;;9.67;3.70;;;-0.20;96.30;;;;;;4896353;29;20452;-76
2021/12/10 00:59:11;;;;;;;5.80;3.80;;;-0.20;96.30;;;;;;4896698;29;20178;-75
2021/12/10 05:02:26;;;;;;;37.00;17.60;;;-0.20;96.30;;;;;;4943654;23;20508;-76
2021/12/10 05:04:56;;;;;;;22.57;11.37;;;-0.20;96.30;;;;;;4881651;29;20465;-75
2021/12/10 05:07:23;;;;;;;19.20;11.60;;;-0.20;96.30;;;;;;4881293;29;20446;-76
2021/12/10 05:09:49;;;;;;;6.50;4.60;;;-0.20;96.30;;;;;;4881760;29;20890;-75
2021/12/10 05:12:14;;;;;;;6.60;4.63;;;-0.20;96.30;;;;;;4881613;29;20452;-74
2021/12/10 05:14:40;;;;;;;7.17;4.30;;;-0.20;96.30;;;;;;4889051;29;20181;-74
2021/12/10 05:17:09;;;;;;;5.37;3.70;;;-0.30;96.30;;;;;;4890205;29;20207;-74
2021/12/10 05:19:38;;;;;;;5.53;3.90;;;-0.30;96.30;;;;;;4889518;29;20469;-74
2021/12/10 05:22:07;;;;;;;6.27;4.37;;;-0.30;96.30;;;;;;4865541;29;20442;-74
2021/12/10 05:24:33;;;;;;;8.73;4.70;;;-0.30;96.30;;;;;;4861898;29;20860;-74
2021/12/10 05:26:59;;;;;;;8.50;5.00;;;-0.20;96.30;;;;;;4862749;29;20415;-74
2021/12/10 05:29:26;;;;;;;5.37;4.40;;;-0.20;96.30;;;;;;4887086;29;20630;-74
2021/12/10 05:31:52;;;;;;;6.57;4.57;;;-0.20;96.30;;;;;;4900458;29;20433;-74
2021/12/10 05:34:18;;;;;;;4.97;3.93;;;-0.20;96.30;;;;;;4900148;29;20425;-74
2021/12/10 05:36:44;;;;;;;6.23;4.53;;;-0.20;96.30;;;;;;4900046;29;20934;-74
2021/12/10 05:39:10;;;;;;;9.43;7.37;;;-0.20;96.30;;;;;;4900296;29;20783;-75
2021/12/10 05:41:36;;;;;;;7.53;5.60;;;-0.10;96.30;;;;;;4900128;29;20787;-75
2021/12/10 05:44:04;;;;;;;7.33;5.87;;;-0.20;96.30;;;;;;4900534;29;20413;-75
2021/12/10 05:46:31;;;;;;;4.43;4.00;;;-0.20;96.30;;;;;;4899534;29;20521;-74
2021/12/10 05:48:57;;;;;;;4.20;3.57;;;-0.20;96.30;;;;;;4899659;29;20415;-75
2021/12/10 05:52:22;;;;;;;7.53;4.90;;;-0.20;96.30;;;;;;4913753;23;20493;-74
2021/12/10 06:01:48;;;;;;;8.77;6.40;;;-0.30;96.30;;;;;;4823407;29;20449;-74
2021/12/10 06:04:13;;;;;;;39.73;20.30;;;-0.40;96.30;;;;;;4843601;29;20917;-74
2021/12/10 06:06:39;;;;;;;8.60;5.20;;;-0.40;96.30;;;;;;4860701;29;20218;-74
2021/12/10 06:09:07;;;;;;;11.87;7.67;;;-0.40;96.30;;;;;;4862124;29;20194;-74
2021/12/10 06:11:33;;;;;;;14.03;7.97;;;-0.50;96.30;;;;;;4860694;29;20194;-75
2021/12/10 06:13:59;;;;;;;5.23;4.03;;;-0.50;96.30;;;;;;4857801;29;20427;-75
2021/12/10 06:16:24;;;;;;;5.47;4.17;;;-0.50;96.30;;;;;;4861591;29;20830;-75
2021/12/10 06:18:51;;;;;;;32.60;21.13;;;-0.50;96.30;;;;;;4859288;29;20263;-75
2021/12/10 06:21:17;;;;;;;10.13;5.70;;;-0.50;96.30;;;;;;4861879;29;20567;-75
2021/12/10 06:23:43;;;;;;;18.57;13.47;;;-0.50;96.30;;;;;;4860701;29;20427;-74
2021/12/10 06:26:09;;;;;;;32.00;19.43;;;-0.50;96.30;;;;;;4860404;29;20467;-75
2021/12/10 06:28:36;;;;;;;71.27;39.70;;;-0.50;96.30;;;;;;4861734;29;20450;-75
2021/12/10 06:31:03;;;;;;;50.80;31.33;;;-0.40;96.30;;;;;;4860607;29;20957;-74
2021/12/10 06:33:29;;;;;;;60.67;31.97;;;-0.40;96.30;;;;;;4861860;29;20777;-75
2021/12/10 06:35:58;;;;;;;45.53;23.53;;;-0.40;96.30;;;;;;4860163;29;20423;-75
2021/12/10 06:38:24;;;;;;;12.87;9.40;;;-0.40;96.30;;;;;;4861799;29;20954;-75
2021/12/10 06:40:51;;;;;;;6.23;4.90;;;-0.40;96.30;;;;;;4861403;29;20541;-75
2021/12/10 06:43:18;;;;;;;7.60;5.90;;;-0.40;96.30;;;;;;4843761;29;20432;-75
2021/12/10 06:45:45;;;;;;;6.60;5.50;;;-0.40;96.30;;;;;;4842818;29;20475;-75
2021/12/10 06:48:12;;;;;;;12.73;9.57;;;-0.40;96.30;;;;;;4842102;29;20426;-75
2021/12/10 06:50:43;;;;;;;7.60;5.80;;;-0.40;96.30;;;;;;4845407;29;20923;-75
2021/12/10 06:53:08;;;;;;;16.13;10.43;;;-0.40;96.30;;;;;;4862170;29;20446;-75
2021/12/10 06:55:35;;;;;;;9.67;6.57;;;-0.40;96.30;;;;;;4863794;29;20483;-75
2021/12/10 06:58:01;;;;;;;17.63;8.40;;;-0.40;96.30;;;;;;4868633;29;20207;-75
2021/12/10 07:00:42;;;;;;;24.83;16.10;;;-0.40;96.30;;;;;;4866394;29;20423;-75
2021/12/10 07:03:19;;;;;;;12.73;8.23;;;-0.50;96.30;;;;;;4861116;29;20498;-75
2021/12/10 07:05:45;;;;;;;5.43;4.40;;;-0.50;96.30;;;;;;4860362;29;20560;-75
2021/12/10 07:08:11;;;;;;;12.20;6.93;;;-0.50;96.30;;;;;;4861435;29;20502;-75
2021/12/10 07:10:37;;;;;;;6.97;5.60;;;-0.50;96.30;;;;;;4861080;29;20205;-75
2021/12/10 07:13:06;;;;;;;6.07;5.27;;;-0.50;96.30;;;;;;4861110;29;20415;-75
2021/12/10 07:15:32;;;;;;;5.77;4.93;;;-0.40;96.30;;;;;;4861015;29;20178;-75
2021/12/10 07:17:58;;;;;;;6.80;5.00;;;-0.40;96.30;;;;;;4861066;29;20427;-75
2021/12/10 07:20:24;;;;;;;7.30;5.57;;;-0.40;96.30;;;;;;4868734;29;20576;-75
2021/12/10 07:22:51;;;;;;;7.00;5.07;;;-0.40;96.30;;;;;;4872986;29;20195;-75
2021/12/10 07:25:17;;;;;;;6.63;4.87;;;-0.40;96.30;;;;;;4872908;29;20478;-75
2021/12/10 07:27:43;;;;;;;6.00;4.50;;;-0.40;96.30;;;;;;4860722;29;20415;-75
2021/12/10 07:30:09;;;;;;;7.07;4.10;;;-0.30;96.30;;;;;;4850547;29;20428;-75
2021/12/10 07:32:35;;;;;;;6.17;3.43;;;-0.30;96.30;;;;;;4842058;29;20262;-75
2021/12/10 07:35:03;;;;;;;5.10;4.00;;;-0.30;96.30;;;;;;4842262;29;20464;-75
2021/12/10 07:37:28;;;;;;;6.73;3.93;;;-0.20;96.30;;;;;;4842125;29;20979;-75
2021/12/10 07:39:54;;;;;;;5.40;4.00;;;-0.20;96.30;;;;;;4841124;29;20523;-75
2021/12/10 07:42:19;;;;;;;6.50;4.83;;;-0.10;96.30;;;;;;4842116;29;20207;-75
2021/12/10 07:44:45;;;;;;;5.57;4.67;;;-0.10;96.30;;;;;;4840820;29;20231;-75
2021/12/10 07:47:13;;;;;;;5.70;4.63;;;-0.10;96.30;;;;;;4840761;29;20190;-75
2021/12/10 07:49:40;;;;;;;13.00;6.17;;;0.00;96.30;;;;;;4841510;29;20427;-75
2021/12/10 07:52:15;;;;;;;7.17;5.63;;;0.00;96.30;;;;;;4841490;29;20475;-75
2021/12/10 07:54:46;;;;;;;7.20;4.80;;;0.10;96.30;;;;;;4854950;29;20419;-75
2021/12/10 07:57:12;;;;;;;7.03;4.80;;;0.10;96.30;;;;;;4859164;29;20471;-75
2021/12/10 07:59:38;;;;;;;7.83;4.53;;;0.10;96.30;;;;;;4859200;29;20423;-75
2021/12/10 08:02:04;;;;;;;9.97;6.60;;;0.10;96.30;;;;;;4860036;29;20457;-75
2021/12/10 08:04:30;;;;;;;10.60;6.40;;;0.20;96.30;;;;;;4860402;29;20419;-75
2021/12/10 08:06:56;;;;;;;10.27;5.57;;;0.20;96.30;;;;;;4859875;29;20471;-75
2021/12/10 08:09:21;;;;;;;8.00;5.97;;;0.20;96.30;;;;;;4860274;29;20201;-75
2021/12/10 08:11:47;;;;;;;9.63;5.70;;;0.30;96.30;;;;;;4858327;29;20206;-75
2021/12/10 08:14:12;;;;;;;7.20;4.83;;;0.30;96.30;;;;;;4860425;29;20206;-75
2021/12/10 08:16:39;;;;;;;5.77;5.17;;;0.40;96.30;;;;;;4860097;29;20182;-74
2021/12/10 08:19:06;;;;;;;5.57;4.47;;;0.50;96.30;;;;;;4860076;29;20178;-75
2021/12/10 08:21:32;;;;;;;5.67;3.80;;;0.60;96.30;;;;;;4859831;29;20450;-74
2021/12/10 08:23:58;;;;;;;8.77;4.97;;;0.60;96.30;;;;;;4860021;29;20430;-75
2021/12/10 08:26:24;;;;;;;6.87;4.47;;;0.70;96.30;;;;;;4859992;29;20474;-75
2021/12/10 08:28:50;;;;;;;10.00;5.37;;;0.70;96.30;;;;;;4859985;29;20189;-75
2021/12/10 08:31:16;;;;;;;8.60;5.90;;;0.80;96.30;;;;;;4859811;29;20439;-75
2021/12/10 08:33:46;;;;;;;7.73;5.00;;;1.00;96.30;;;;;;4860038;29;20635;-75
2021/12/10 08:36:13;;;;;;;13.57;6.93;;;1.10;96.30;;;;;;4859922;29;20430;-75
2021/12/10 08:38:39;;;;;;;9.43;5.70;;;1.20;96.30;;;;;;4859823;29;20415;-75
2021/12/10 08:41:09;;;;;;;7.60;5.00;;;1.10;96.30;;;;;;4859799;29;20527;-75
2021/12/10 08:43:35;;;;;;;11.00;6.70;;;1.10;96.30;;;;;;4859881;29;20430;-75
2021/12/10 08:46:04;;;;;;;7.50;5.77;;;1.20;96.30;;;;;;4859514;29;20482;-75
2021/12/10 08:48:30;;;;;;;12.33;7.47;;;1.10;96.30;;;;;;4858909;29;20190;-75
2021/12/10 08:51:00;;;;;;;6.10;3.53;;;1.20;96.30;;;;;;4878267;29;20831;-75
2021/12/10 08:53:25;;;;;;;11.93;6.30;;;1.50;96.30;;;;;;4871065;29;20448;-75
2021/12/10 08:55:54;;;;;;;11.93;7.90;;;1.40;96.30;;;;;;4848187;29;20954;-75
2021/12/10 08:58:21;;;;;;;9.37;5.47;;;1.40;96.30;;;;;;4854551;29;20197;-75
2021/12/10 09:00:57;;;;;;;9.30;4.77;;;1.60;96.30;;;;;;4858848;29;20450;-75
2021/12/10 09:03:23;;;;;;;6.70;4.30;;;1.80;96.30;;;;;;4858769;29;20426;-75
2021/12/10 09:05:49;;;;;;;5.93;3.87;;;1.90;96.30;;;;;;4859551;29;20913;-75
2021/12/10 09:08:15;;;;;;;5.47;3.70;;;2.30;96.30;;;;;;4859799;29;20202;-74
2021/12/10 09:10:43;;;;;;;8.47;6.00;;;2.40;96.30;;;;;;4858220;29;20503;-75
2021/12/10 09:13:14;;;;;;;7.17;5.40;;;2.50;96.30;;;;;;4858407;29;20423;-75
2021/12/10 09:15:46;;;;;;;6.00;4.57;;;2.70;96.30;;;;;;4859668;29;20418;-75
2021/12/10 09:18:13;;;;;;;8.27;4.13;;;2.80;96.30;;;;;;4859499;29;20490;-75
2021/12/10 09:20:42;;;;;;;5.40;4.60;;;2.80;96.30;;;;;;4859399;29;20477;-75
2021/12/10 09:23:11;;;;;;;6.37;4.20;;;2.60;96.30;;;;;;4854197;29;20436;-74
2021/12/10 09:25:38;;;;;;;6.07;4.93;;;2.70;96.30;;;;;;4840910;29;20566;-75
2021/12/10 09:28:05;;;;;;;6.90;4.80;;;3.00;96.30;;;;;;4843731;29;20412;-75
2021/12/10 09:30:33;;;;;;;10.90;6.73;;;3.20;96.30;;;;;;4881453;29;20930;-75
2021/12/10 09:32:58;;;;;;;10.63;6.63;;;3.40;96.30;;;;;;4881516;29;20429;-75
2021/12/10 09:35:27;;;;;;;8.87;5.97;;;3.60;96.30;;;;;;4880115;29;20426;-75
2021/12/10 09:37:54;;;;;;;7.70;5.57;;;3.70;96.30;;;;;;4881252;29;20182;-74
2021/12/10 09:40:24;;;;;;;8.30;5.30;;;3.60;96.30;;;;;;4881263;29;20462;-75
2021/12/10 09:42:50;;;;;;;7.70;5.37;;;3.80;96.30;;;;;;4881428;29;20806;-74
2021/12/10 09:45:19;;;;;;;5.73;4.10;;;3.90;96.30;;;;;;4881266;29;20548;-74
2021/12/10 09:47:45;;;;;;;4.00;3.60;;;3.50;96.30;;;;;;4881091;29;20244;-74
2021/12/10 09:50:14;;;;;;;6.90;4.00;;;3.40;96.30;;;;;;4879745;29;20919;-74
2021/12/10 09:52:40;;;;;;;4.13;3.70;;;3.30;96.30;;;;;;4877871;29;20219;-74
2021/12/10 09:55:08;;;;;;;6.30;4.03;;;3.20;96.30;;;;;;4856854;29;20511;-74
2021/12/10 09:57:38;;;;;;;6.50;4.63;;;3.30;96.30;;;;;;4860886;29;20462;-75
2021/12/10 10:00:13;;;;;;;6.63;5.07;;;3.50;96.30;;;;;;4862336;29;20422;-74
2021/12/10 10:02:40;;;;;;;6.97;5.03;;;3.50;96.30;;;;;;4862223;29;20763;-74
2021/12/10 10:05:07;;;;;;;4.20;3.20;;;3.30;96.30;;;;;;4862141;29;20498;-74
2021/12/10 10:07:35;;;;;;;4.57;3.57;;;3.60;96.30;;;;;;4860736;29;20422;-74
2021/12/10 10:10:07;;;;;;;4.83;4.23;;;3.70;96.30;;;;;;4857679;29;20421;-74
2021/12/10 10:12:38;;;;;;;5.70;3.90;;;3.40;96.30;;;;;;4843715;29;20970;-74
2021/12/10 10:15:09;;;;;;;5.27;3.83;;;3.50;96.30;;;;;;4855034;29;20470;-74
2021/12/10 10:17:35;;;;;;;5.40;4.10;;;3.80;96.30;;;;;;4861664;29;20502;-74
2021/12/10 10:20:01;;;;;;;4.80;3.60;;;4.10;96.30;;;;;;4867916;29;20477;-74
2021/12/10 10:22:31;;;;;;;5.53;3.40;;;4.60;96.30;;;;;;4846752;29;20948;-74
2021/12/10 10:24:57;;;;;;;5.10;3.60;;;4.90;96.30;;;;;;4843253;29;20704;-74
2021/12/10 10:27:31;;;;;;;10.00;4.90;;;5.30;96.30;;;;;;4842138;29;20416;-74
2021/12/10 10:30:04;;;;;;;5.60;3.27;;;5.70;96.30;;;;;;4869541;29;20454;-74
2021/12/10 10:32:32;;;;;;;2.93;2.50;;;5.20;96.30;;;;;;4861647;29;20430;-74
2021/12/10 10:35:01;;;;;;;8.20;4.63;;;5.20;96.30;;;;;;4861686;29;20422;-74
2021/12/10 10:37:29;;;;;;;4.13;2.90;;;5.70;96.30;;;;;;4861485;29;20809;-74
2021/12/10 10:39:55;;;;;;;3.53;2.77;;;6.30;96.30;;;;;;4860515;29;20931;-74
2021/12/10 10:42:24;;;;;;;2.30;2.10;;;6.80;96.30;;;;;;4861474;29;20662;-75
2021/12/10 10:44:50;;;;;;;5.87;3.57;;;6.70;96.30;;;;;;4861325;29;20450;-75
2021/12/10 10:47:16;;;;;;;6.63;5.13;;;7.50;96.30;;;;;;4861221;29;20507;-75
2021/12/10 10:49:48;;;;;;;6.07;4.90;;;8.00;96.30;;;;;;4861376;29;20448;-75
2021/12/10 10:52:35;;;;;;;2.47;2.20;;;7.60;96.30;;;;;;4861116;29;20599;-75
2021/12/10 10:55:12;;;;;;;2.00;1.67;;;7.40;96.30;;;;;;4861321;29;20424;-75
2021/12/10 10:58:12;;;;;;;3.57;2.27;;;6.50;96.30;;;;;;4861191;29;20435;-75
2021/12/10 11:00:46;;;;;;;6.50;4.37;;;6.30;96.30;;;;;;4846626;29;20884;-75
2021/12/10 11:03:16;;;;;;;4.33;2.83;;;5.90;96.30;;;;;;4860128;29;20482;-75
2021/12/10 11:05:56;;;;;;;3.30;2.57;;;4.80;96.30;;;;;;4860844;29;20967;-75
2021/12/10 11:08:42;;;;;;;10.23;3.63;;;4.20;96.30;;;;;;4860993;29;20422;-74
2021/12/10 11:11:15;;;;;;;3.87;3.00;;;4.00;96.30;;;;;;4859888;29;20458;-74
2021/12/10 11:13:43;;;;;;;4.63;3.50;;;3.20;96.30;;;;;;4861802;29;20396;-74
2021/12/10 11:16:12;;;;;;;4.60;3.80;;;3.20;96.30;;;;;;4846498;29;20459;-74
2021/12/10 11:18:52;;;;;;;7.47;3.67;;;3.10;96.30;;;;;;4842385;29;20424;-74
2021/12/10 11:39:45;;;;;;;4.00;3.53;;;3.10;96.30;;;;;;5261147;23;20501;-74
2021/12/10 11:42:38;;;;;;;4.10;2.80;;;3.30;96.30;;;;;;4844941;29;20440;-74
2021/12/10 11:45:30;;;;;;;6.70;4.63;;;2.80;96.30;;;;;;4841826;29;20472;-73
2021/12/10 11:48:05;;;;;;;6.50;4.07;;;3.10;96.30;;;;;;4841660;29;20539;-73
2021/12/10 11:50:33;;;;;;;5.13;3.70;;;3.00;96.30;;;;;;4841856;29;20496;-73
2021/12/10 11:53:02;;;;;;;5.60;4.40;;;2.50;96.30;;;;;;4842272;29;20431;-74
2021/12/10 11:55:28;;;;;;;6.27;4.93;;;2.30;96.30;;;;;;4842745;29;20438;-74
2021/12/10 11:57:53;;;;;;;6.30;4.60;;;2.30;96.30;;;;;;4840401;29;20507;-73
2021/12/10 12:00:24;;;;;;;5.30;4.77;;;2.20;96.30;;;;;;4841740;29;20739;-74
2021/12/10 12:03:01;;;;;;;7.40;5.20;;;2.00;96.30;;;;;;4841569;29;20247;-74
2021/12/10 12:05:35;;;;;;;6.57;5.30;;;1.90;96.30;;;;;;4841575;29;20459;-75
2021/12/10 12:08:07;;;;;;;6.17;4.87;;;1.90;96.30;;;;;;4853741;29;20429;-75
2021/12/10 12:10:39;;;;;;;6.77;4.60;;;2.00;96.30;;;;;;4860069;29;20777;-74
2021/12/10 12:15:43;;;;;;;9.40;7.90;;;1.90;96.30;;;;;;4859881;29;20515;-75
2021/12/10 12:18:27;;;;;;;10.00;5.30;;;1.70;96.30;;;;;;4859826;29;20471;-74
2021/12/10 12:21:37;;;;;;;7.80;5.90;;;1.60;96.30;;;;;;4859909;29;20442;-74
2021/12/10 12:26:51;;;;;;;7.33;5.87;;;1.90;96.30;;;;;;4849400;29;20484;-74
2021/12/10 12:29:18;;;;;;;12.17;7.57;;;2.00;96.30;;;;;;4856075;29;20453;-74
2021/12/10 12:31:50;;;;;;;16.57;7.97;;;2.10;96.30;;;;;;4859935;29;20626;-75
2021/12/10 12:34:28;;;;;;;9.03;5.73;;;2.40;96.30;;;;;;4869076;29;20917;-74
2021/12/10 12:36:53;;;;;;;8.17;5.90;;;2.30;96.30;;;;;;4878419;29;20932;-74
2021/12/10 12:39:45;;;;;;;13.03;9.33;;;2.10;96.30;;;;;;4878704;29;20437;-74
2021/12/10 12:42:23;;;;;;;9.70;7.07;;;2.20;96.30;;;;;;4858381;29;20206;-73
2021/12/10 12:44:53;;;;;;;10.27;6.10;;;2.20;96.30;;;;;;4854401;29;20453;-74
2021/12/10 12:47:22;;;;;;;8.53;6.43;;;2.10;96.30;;;;;;4873811;29;20426;-74
2021/12/10 12:49:48;;;;;;;7.90;6.00;;;2.00;96.30;;;;;;4873050;29;20432;-74
2021/12/10 12:52:29;;;;;;;13.93;6.27;;;1.80;96.30;;;;;;4878376;29;20438;-74
2021/12/10 12:55:13;;;;;;;13.43;7.70;;;1.80;96.30;;;;;;4892661;29;20230;-74
2021/12/10 12:57:43;;;;;;;11.10;6.60;;;1.80;96.30;;;;;;4858947;29;20942;-74
2021/12/10 13:00:14;;;;;;;9.50;6.50;;;1.80;96.30;;;;;;4859183;29;20434;-74
2021/12/10 13:02:40;;;;;;;8.50;6.43;;;1.70;96.30;;;;;;4859169;29;20430;-73
2021/12/10 13:05:09;;;;;;;8.80;6.00;;;1.80;96.30;;;;;;4862525;29;20458;-73
2021/12/10 13:07:36;;;;;;;9.23;8.33;;;1.70;96.30;;;;;;4862625;29;20290;-74
2021/12/10 13:10:05;;;;;;;9.90;7.43;;;1.60;96.30;;;;;;4862580;29;20422;-74
2021/12/10 13:12:44;;;;;;;8.13;6.10;;;1.60;96.30;;;;;;4861505;29;20827;-75
2021/12/10 13:15:14;;;;;;;19.50;7.33;;;1.40;96.30;;;;;;4861618;29;20438;-74
2021/12/10 13:17:53;;;;;;;8.27;6.40;;;1.50;96.30;;;;;;4862696;29;20786;-75
2021/12/10 13:20:23;;;;;;;9.20;6.83;;;1.40;96.30;;;;;;4852081;29;20438;-75
2021/12/10 13:22:51;;;;;;;8.87;7.17;;;1.40;96.30;;;;;;4844536;29;20438;-75
2021/12/10 13:25:22;;;;;;;8.20;6.80;;;1.30;96.30;;;;;;4849902;29;20506;-76
2021/12/10 13:27:47;;;;;;;8.67;6.60;;;1.30;96.30;;;;;;4864122;29;20521;-75
2021/12/10 13:30:20;;;;;;;9.47;6.60;;;1.30;96.30;;;;;;4866289;29;20506;-75
2021/12/10 13:32:48;;;;;;;10.20;6.80;;;1.50;96.30;;;;;;4844593;29;20179;-75
2021/12/10 13:35:16;;;;;;;12.13;7.40;;;1.50;96.30;;;;;;4876567;29;20961;-76
2021/12/10 13:37:42;;;;;;;12.53;8.10;;;1.40;96.30;;;;;;4881154;29;20426;-77
2021/12/10 13:40:09;;;;;;;19.40;11.07;;;1.30;96.30;;;;;;4881469;29;20448;-76
2021/12/10 13:42:35;;;;;;;13.87;8.53;;;1.30;96.30;;;;;;4874272;29;20498;-76
2021/12/10 13:45:01;;;;;;;12.73;8.70;;;1.30;96.30;;;;;;4862565;29;20951;-76
2021/12/10 13:47:39;;;;;;;17.60;11.33;;;1.30;96.30;;;;;;4862274;29;20181;-76
2021/12/10 13:50:06;;;;;;;9.37;6.37;;;1.30;96.30;;;;;;4861346;29;20423;-76
2021/12/10 13:52:52;;;;;;;9.50;7.60;;;1.20;96.30;;;;;;4862545;29;20434;-77
2021/12/10 13:55:31;;;;;;;10.47;6.63;;;1.10;96.30;;;;;;4862567;29;20415;-75
2021/12/10 13:58:19;;;;;;;11.53;7.30;;;1.00;96.30;;;;;;4862170;29;20525;-76
2021/12/10 14:00:59;;;;;;;9.27;6.40;;;0.80;96.30;;;;;;4877740;29;20477;-75
2021/12/10 14:03:46;;;;;;;11.67;7.90;;;0.70;96.30;;;;;;4881049;29;20822;-75
2021/12/10 14:06:16;;;;;;;9.33;7.00;;;0.70;96.30;;;;;;4872685;29;20463;-75
2021/12/10 14:08:42;;;;;;;12.60;6.80;;;0.50;96.30;;;;;;4843743;29;20455;-75
2021/12/10 14:11:25;;;;;;;13.43;8.00;;;0.50;96.30;;;;;;4843578;29;20928;-75
2021/12/10 14:14:09;;;;;;;25.23;11.43;;;0.40;96.30;;;;;;4843456;29;20392;-75
2021/12/10 14:16:47;;;;;;;14.00;9.23;;;0.40;96.30;;;;;;4843235;29;20506;-77
2021/12/10 14:19:36;;;;;;;7.93;6.70;;;0.30;96.30;;;;;;4844660;29;20412;-75
2021/12/10 14:22:05;;;;;;;9.90;7.30;;;0.20;96.30;;;;;;4861923;29;20431;-76
2021/12/10 14:24:37;;;;;;;9.10;7.10;;;0.10;96.30;;;;;;4858891;29;20763;-77
2021/12/10 14:27:20;;;;;;;9.80;6.47;;;0.00;96.30;;;;;;4861390;29;21094;-78
2021/12/10 14:30:10;;;;;;;12.73;8.33;;;-0.10;96.30;;;;;;4860629;29;20430;-76
2021/12/10 14:32:36;;;;;;;11.40;8.10;;;-0.20;96.30;;;;;;4862010;29;20819;-76
2021/12/10 14:35:07;;;;;;;18.23;11.73;;;-0.20;96.30;;;;;;4861591;29;20415;-76
2021/12/10 14:37:47;;;;;;;20.13;12.60;;;-0.40;96.30;;;;;;4861336;29;20722;-77
2021/12/10 14:40:13;;;;;;;27.20;14.80;;;-0.50;96.30;;;;;;4861211;29;20935;-76
2021/12/10 14:42:38;;;;;;;12.03;8.57;;;-0.60;96.30;;;;;;4861516;29;20423;-76
2021/12/10 14:45:10;;;;;;;12.37;9.53;;;-0.70;96.30;;;;;;4860117;29;20352;-76
2021/12/10 14:47:36;;;;;;;16.20;10.80;;;-0.70;96.30;;;;;;4861101;29;20617;-76
2021/12/10 14:50:08;;;;;;;28.20;16.33;;;-0.80;96.30;;;;;;4861559;29;20420;-76
2021/12/10 14:52:38;;;;;;;18.07;13.90;;;-1.00;96.30;;;;;;4861070;29;20774;-76
2021/12/10 14:55:14;;;;;;;11.63;10.10;;;-1.20;96.30;;;;;;4861361;29;20415;-76
2021/12/10 14:57:51;;;;;;;11.10;6.83;;;-1.30;96.30;;;;;;4861086;29;20459;-76
2021/12/10 15:00:40;;;;;;;11.90;7.20;;;-1.50;96.30;;;;;;4861033;29;20482;-76
2021/12/10 15:03:11;;;;;;;14.37;10.70;;;-1.60;96.30;;;;;;4860700;29;20419;-77
2021/12/10 15:06:02;;;;;;;11.53;8.83;;;-1.70;96.30;;;;;;4860949;29;20594;-77
2021/12/10 15:08:47;;;;;;;12.43;8.93;;;-1.80;96.30;;;;;;4861013;29;20415;-76
2021/12/10 15:11:28;;;;;;;12.87;7.43;;;-2.00;96.30;;;;;;4861018;29;20431;-76
2021/12/10 15:13:55;;;;;;;15.27;8.33;;;-2.10;96.30;;;;;;4859708;29;20786;-77
2021/12/10 15:16:35;;;;;;;24.43;14.40;;;-2.10;96.30;;;;;;4843256;29;20427;-77
2021/12/10 15:19:10;;;;;;;13.47;8.93;;;-2.10;96.30;;;;;;4848034;29;20431;-77
2021/12/10 15:21:41;;;;;;;13.77;9.43;;;-2.10;96.30;;;;;;4859544;29;20446;-78
2021/12/10 15:24:18;;;;;;;9.53;7.10;;;-2.20;96.30;;;;;;4843255;29;20531;-76
2021/12/10 15:27:05;;;;;;;8.90;5.17;;;-2.30;96.30;;;;;;4852234;29;20525;-77
2021/12/10 15:29:33;;;;;;;16.33;9.50;;;-2.40;96.30;;;;;;4860618;29;20419;-78
2021/12/10 15:32:09;;;;;;;11.23;6.43;;;-2.50;96.30;;;;;;4860192;29;20554;-77
2021/12/10 15:34:41;;;;;;;11.60;7.67;;;-2.60;96.30;;;;;;4860514;29;20914;-77
2021/12/10 15:37:09;;;;;;;10.47;6.97;;;-2.70;96.30;;;;;;4860416;29;20435;-77
2021/12/10 15:39:37;;;;;;;8.77;5.90;;;-2.70;96.30;;;;;;4859172;29;20450;-77
2021/12/10 15:42:05;;;;;;;14.57;9.30;;;-2.70;96.30;;;;;;4860356;29;20454;-77
2021/12/10 15:44:31;;;;;;;10.90;7.13;;;-2.70;96.30;;;;;;4860758;29;20772;-77
2021/12/10 15:46:58;;;;;;;73.57;32.07;;;-2.70;96.30;;;;;;4858863;29;20466;-78
2021/12/10 15:49:26;;;;;;;117.23;53.33;;;-2.60;96.30;;;;;;4859214;29;20193;-78
2021/12/10 15:52:06;;;;;;;48.33;23.30;;;-2.60;96.30;;;;;;4860938;29;20443;-79
2021/12/10 15:54:41;;;;;;;30.77;15.97;;;-2.70;96.30;;;;;;4859467;29;20429;-77
2021/12/10 15:57:23;;;;;;;14.60;9.13;;;-2.80;96.30;;;;;;4859074;29;20453;-78
2021/12/10 15:59:51;;;;;;;9.53;7.67;;;-3.00;96.30;;;;;;4859421;29;20448;-77
2021/12/10 16:02:21;;;;;;;23.77;13.83;;;-3.10;96.30;;;;;;4858720;29;20537;-77
2021/12/10 16:04:56;;;;;;;30.37;18.60;;;-3.20;96.30;;;;;;4859957;29;20423;-77
2021/12/10 16:07:25;;;;;;;37.43;22.90;;;-3.30;96.30;;;;;;4858866;29;20431;-77
2021/12/10 16:10:02;;;;;;;27.20;18.20;;;-3.20;96.30;;;;;;4857774;29;20423;-77
2021/12/10 16:12:29;;;;;;;22.13;15.20;;;-3.20;96.30;;;;;;4858802;29;20530;-77
2021/12/10 16:14:55;;;;;;;12.30;8.57;;;-3.20;96.30;;;;;;4859927;29;20887;-77
2021/12/10 16:17:21;;;;;;;14.50;10.93;;;-3.30;96.30;;;;;;4859539;29;20411;-77
2021/12/10 16:19:49;;;;;;;14.40;8.33;;;-3.30;96.30;;;;;;4859967;29;20186;-77
2021/12/10 16:22:21;;;;;;;10.53;6.97;;;-3.40;96.30;;;;;;4859810;29;20559;-77
2021/12/10 16:25:05;;;;;;;17.23;12.03;;;-3.50;96.30;;;;;;4859811;29;20423;-77
2021/12/10 16:27:39;;;;;;;24.27;14.53;;;-3.50;96.30;;;;;;4859739;29;20412;-77
2021/12/10 16:30:17;;;;;;;20.10;12.73;;;-3.50;96.30;;;;;;4858548;29;20411;-77
2021/12/10 16:32:47;;;;;;;13.50;9.60;;;-3.60;96.30;;;;;;4859647;29;20411;-77
2021/12/10 16:35:21;;;;;;;21.70;10.63;;;-3.70;96.30;;;;;;4859851;29;20426;-77
2021/12/10 16:37:46;;;;;;;11.50;8.37;;;-3.80;96.30;;;;;;4859718;29;20415;-77
2021/12/10 16:40:19;;;;;;;10.33;6.07;;;-3.90;96.30;;;;;;4863416;29;20818;-77
2021/12/10 16:42:47;;;;;;;8.43;5.10;;;-3.90;96.30;;;;;;4862278;29;20178;-77
2021/12/10 16:45:13;;;;;;;9.23;7.60;;;-3.90;96.30;;;;;;4863234;29;20556;-77
2021/12/10 16:47:42;;;;;;;11.17;6.60;;;-3.90;96.30;;;;;;4863252;29;20418;-77
2021/12/10 16:50:08;;;;;;;8.23;6.77;;;-3.90;96.30;;;;;;4863612;29;20478;-77
2021/12/10 16:52:37;;;;;;;9.00;6.00;;;-3.90;96.30;;;;;;4863543;29;20916;-77
2021/12/10 16:55:08;;;;;;;11.13;6.60;;;-3.90;96.30;;;;;;4862111;29;20419;-77
2021/12/10 16:57:36;;;;;;;13.17;5.93;;;-3.90;96.30;;;;;;4861936;29;20780;-78
2021/12/10 17:00:09;;;;;;;13.90;8.50;;;-3.70;96.30;;;;;;4863346;29;20444;-78
2021/12/10 17:02:34;;;;;;;12.57;9.03;;;-3.70;96.30;;;;;;4863191;29;20439;-78
2021/12/10 17:05:07;;;;;;;11.97;8.20;;;-3.70;96.30;;;;;;4861960;29;20436;-78
2021/12/10 17:07:37;;;;;;;12.07;8.00;;;-3.70;96.30;;;;;;4863096;29;20281;-78
2021/12/10 17:10:14;;;;;;;11.00;7.87;;;-3.70;96.30;;;;;;4861996;29;20517;-78
2021/12/10 17:12:40;;;;;;;9.13;6.70;;;-3.50;96.30;;;;;;4863267;29;20459;-78
2021/12/10 17:15:13;;;;;;;10.07;7.40;;;-3.20;96.30;;;;;;4863250;29;20418;-78
2021/12/10 17:17:43;;;;;;;27.50;19.47;;;-3.00;96.30;;;;;;4862051;29;20427;-78
2021/12/10 17:20:16;;;;;;;19.37;11.37;;;-3.00;96.30;;;;;;4863542;29;20904;-78
2021/12/10 17:22:45;;;;;;;17.20;9.03;;;-2.80;96.30;;;;;;4863272;29;20400;-79
2021/12/10 17:25:33;;;;;;;14.40;9.00;;;-2.70;96.30;;;;;;4861657;29;20551;-78
2021/12/10 17:28:02;;;;;;;18.03;9.53;;;-2.60;96.30;;;;;;4862766;29;20510;-78
2021/12/10 17:30:32;;;;;;;16.90;10.67;;;-2.40;96.30;;;;;;4870533;29;20448;-78
2021/12/10 17:33:00;;;;;;;15.43;10.40;;;-2.30;96.30;;;;;;4861866;29;20432;-79
2021/12/10 17:35:31;;;;;;;16.83;8.67;;;-2.30;96.30;;;;;;4854713;29;20414;-79